createdAt,value
2024-03-14T00:01:00.707Z,58.66
2024-03-14T00:03:30.873Z,58.98
2024-03-14T00:06:02.858Z,59.13
2024-03-14T00:08:33.433Z,58.84
2024-03-14T00:11:07.382Z,59.05
2024-03-14T00:13:40.426Z,59.11
2024-03-14T00:16:12.462Z,59.24
2024-03-14T00:18:42.467Z,59.37
2024-03-14T00:21:14.241Z,59.45
2024-03-14T00:23:46.439Z,59.50
2024-03-14T00:26:19.238Z,59.42
2024-03-14T00:28:54.027Z,59.50
2024-03-14T00:31:26.600Z,59.56
2024-03-14T00:33:57.185Z,59.40
2024-03-14T00:36:27.167Z,59.53
2024-03-14T00:38:57.315Z,59.47
2024-03-14T00:41:28.089Z,59.56
2024-03-14T00:44:01.030Z,59.78
2024-03-14T00:46:31.492Z,59.57
2024-03-14T00:49:01.542Z,59.58
2024-03-14T00:51:31.569Z,59.59
2024-03-14T00:54:03.568Z,59.81
2024-03-14T00:56:33.464Z,59.90
2024-03-14T00:59:06.177Z,59.85
2024-03-14T01:01:37.582Z,59.91
2024-03-14T01:04:08.363Z,59.95
2024-03-14T01:06:40.022Z,59.78
2024-03-14T01:09:13.181Z,59.79
2024-03-14T01:11:43.645Z,59.81
2024-03-14T01:14:16.412Z,59.98
2024-03-14T01:16:46.438Z,59.90
2024-03-14T01:19:18.628Z,60.05
2024-03-14T01:21:48.804Z,60.15
2024-03-14T01:24:18.824Z,60.16
2024-03-14T01:26:49.898Z,60.04
2024-03-14T01:29:22.591Z,60.11
2024-03-14T01:31:52.692Z,60.26
2024-03-14T01:34:23.737Z,60.32
2024-03-14T01:36:53.698Z,60.37
2024-03-14T01:39:22.855Z,60.40
2024-03-14T01:41:53.736Z,60.35
2024-03-14T01:44:26.333Z,60.42
2024-03-14T01:46:56.656Z,60.52
2024-03-14T01:49:26.687Z,60.36
2024-03-14T01:51:56.745Z,60.41
2024-03-14T01:54:27.019Z,60.41
2024-03-14T01:57:02.363Z,60.49
2024-03-14T01:59:35.145Z,60.59
2024-03-14T02:02:06.621Z,60.65
2024-03-14T02:04:42.732Z,60.52
2024-03-14T02:07:14.741Z,60.72
2024-03-14T02:09:44.928Z,60.86
2024-03-14T02:12:15.058Z,60.75
2024-03-14T02:14:50.054Z,60.66
2024-03-14T02:17:20.437Z,60.87
2024-03-14T02:19:50.502Z,60.81
2024-03-14T02:22:26.345Z,60.90
2024-03-14T02:24:56.352Z,60.97
2024-03-14T02:27:26.896Z,60.80
2024-03-14T02:29:56.959Z,60.97
2024-03-14T02:32:27.004Z,61.01
2024-03-14T02:34:57.044Z,61.04
2024-03-14T02:37:29.626Z,60.71
2024-03-14T02:39:59.624Z,60.80
2024-03-14T02:42:29.716Z,61.01
2024-03-14T02:44:59.697Z,61.11
2024-03-14T02:47:29.701Z,60.92
2024-03-14T02:49:59.729Z,61.03
2024-03-14T02:52:32.366Z,60.96
2024-03-14T02:55:03.169Z,60.94
2024-03-14T02:57:34.316Z,60.97
2024-03-14T03:00:06.030Z,61.12
2024-03-14T03:02:35.984Z,60.86
2024-03-14T03:05:06.892Z,61.15
2024-03-14T03:07:39.565Z,60.98
2024-03-14T03:10:13.213Z,61.08
2024-03-14T03:12:43.474Z,61.18
2024-03-14T03:15:13.677Z,61.00
2024-03-14T03:17:43.703Z,61.04
2024-03-14T03:20:14.388Z,61.35
2024-03-14T03:22:59.252Z,61.01
2024-03-14T03:25:29.641Z,60.97
2024-03-14T03:27:56.978Z,61.13
2024-03-14T03:30:27.085Z,61.09
2024-03-14T03:32:54.442Z,60.88
2024-03-14T03:35:26.563Z,61.01
2024-03-14T03:37:58.604Z,60.93
2024-03-14T03:40:32.135Z,60.90
2024-03-14T03:42:59.448Z,60.98
2024-03-14T03:45:30.593Z,61.11
2024-03-14T03:47:58.247Z,61.06
2024-03-14T03:50:29.205Z,61.08
2024-03-14T03:52:59.163Z,61.08
2024-03-14T03:55:29.396Z,61.00
2024-03-14T03:57:59.383Z,61.10
2024-03-14T04:00:43.175Z,61.04
2024-03-14T04:03:13.619Z,60.91
2024-03-14T04:05:41.146Z,61.26
2024-03-14T04:08:16.256Z,61.15
2024-03-14T04:10:43.664Z,61.20
2024-03-14T04:13:16.863Z,60.90
2024-03-14T04:15:48.218Z,60.98
2024-03-14T04:18:18.156Z,61.07
2024-03-14T04:20:48.213Z,61.16
2024-03-14T04:23:21.900Z,60.96
2024-03-14T04:25:52.360Z,61.19
2024-03-14T04:28:24.989Z,61.31
2024-03-14T04:30:55.231Z,61.30
2024-03-14T04:33:25.254Z,61.05
2024-03-14T04:35:58.492Z,61.17
2024-03-14T04:38:31.081Z,61.26
2024-03-14T04:41:01.964Z,61.25
2024-03-14T04:43:31.971Z,61.19
2024-03-14T04:46:02.674Z,61.22
2024-03-14T04:48:33.459Z,61.16
2024-03-14T04:51:05.790Z,61.12
2024-03-14T04:53:38.788Z,61.06
2024-03-14T04:56:09.153Z,61.17
2024-03-14T04:58:40.203Z,61.25
2024-03-14T05:01:10.162Z,61.17
2024-03-14T05:03:40.348Z,61.22
2024-03-14T05:06:11.074Z,61.04
2024-03-14T05:08:44.014Z,61.31
2024-03-14T05:11:14.079Z,61.21
2024-03-14T05:13:44.957Z,61.31
2024-03-14T05:16:16.109Z,61.11
2024-03-14T05:18:47.458Z,61.27
2024-03-14T05:21:18.194Z,61.33
2024-03-14T05:23:51.418Z,61.32
2024-03-14T05:26:22.450Z,61.20
2024-03-14T05:28:52.477Z,61.14
2024-03-14T05:31:22.756Z,61.22
2024-03-14T05:33:53.192Z,61.30
2024-03-14T05:36:23.184Z,61.68
2024-03-14T05:38:55.791Z,59.76
2024-03-14T05:41:25.843Z,59.34
2024-03-14T05:43:56.834Z,59.77
2024-03-14T05:46:27.574Z,60.27
2024-03-14T05:48:57.916Z,60.42
2024-03-14T05:51:28.400Z,60.26
2024-03-14T05:54:01.100Z,60.48
2024-03-14T05:56:31.414Z,60.58
2024-03-14T05:59:01.272Z,61.04
2024-03-14T06:01:31.582Z,60.93
2024-03-14T06:04:01.515Z,61.03
2024-03-14T06:06:32.050Z,60.98
2024-03-14T06:09:05.429Z,61.07
2024-03-14T06:11:35.806Z,61.14
2024-03-14T06:14:06.191Z,61.28
2024-03-14T06:16:36.200Z,61.44
2024-03-14T06:19:07.967Z,61.64
2024-03-14T06:21:42.218Z,61.32
2024-03-14T06:24:16.805Z,61.16
2024-03-14T06:26:46.800Z,61.41
2024-03-14T06:29:16.701Z,61.86
2024-03-14T06:31:46.668Z,61.68
2024-03-14T06:34:16.951Z,62.21
2024-03-14T06:36:47.577Z,62.14
2024-03-14T06:39:22.411Z,61.84
2024-03-14T06:41:52.422Z,61.68
2024-03-14T06:44:23.698Z,61.51
2024-03-14T06:46:53.544Z,61.31
2024-03-14T06:49:24.687Z,61.50
2024-03-14T06:51:54.570Z,61.64
2024-03-14T06:54:27.336Z,61.72
2024-03-14T06:56:58.659Z,61.96
2024-03-14T06:59:29.539Z,61.71
2024-03-14T07:02:01.697Z,61.75
2024-03-14T07:04:35.228Z,61.23
2024-03-14T07:07:06.269Z,61.18
2024-03-14T07:09:38.958Z,61.10
2024-03-14T07:12:11.769Z,60.97
2024-03-14T07:14:43.212Z,60.93
2024-03-14T07:17:13.247Z,60.98
2024-03-14T07:19:43.245Z,60.56
2024-03-14T07:22:13.459Z,60.92
2024-03-14T07:24:46.219Z,61.02
2024-03-14T07:27:16.793Z,61.29
2024-03-14T07:29:49.000Z,61.30
2024-03-14T07:32:21.191Z,61.65
2024-03-14T07:34:54.144Z,61.36
2024-03-14T07:37:25.026Z,61.61
2024-03-14T07:39:58.311Z,61.35
2024-03-14T07:42:31.419Z,61.46
2024-03-14T07:45:01.546Z,61.78
2024-03-14T07:47:31.874Z,61.66
2024-03-14T07:50:02.088Z,61.74
2024-03-14T07:52:33.848Z,61.55
2024-03-14T07:55:08.925Z,61.86
2024-03-14T07:57:39.826Z,61.76
2024-03-14T08:00:17.267Z,61.79
2024-03-14T08:02:56.693Z,61.91
2024-03-14T08:05:34.423Z,61.70
2024-03-14T08:08:14.757Z,61.67
2024-03-14T08:10:52.984Z,62.06
2024-03-14T08:13:25.486Z,62.04
2024-03-14T08:16:01.444Z,61.93
2024-03-14T08:18:32.457Z,62.01
2024-03-14T08:21:02.594Z,62.03
2024-03-14T08:23:33.944Z,62.13
2024-03-14T08:26:08.670Z,61.98
2024-03-14T08:28:39.998Z,61.99
2024-03-14T08:31:16.172Z,62.05
2024-03-14T08:33:47.121Z,62.29
2024-03-14T08:36:18.396Z,62.21
2024-03-14T08:38:49.876Z,62.14
2024-03-14T08:41:22.474Z,62.36
2024-03-14T08:43:55.770Z,62.42
2024-03-14T08:46:27.668Z,62.40
2024-03-14T08:48:58.347Z,62.10
2024-03-14T08:51:28.553Z,62.18
2024-03-14T08:54:29.907Z,62.00
2024-03-14T08:57:05.425Z,62.16
2024-03-14T08:59:37.649Z,62.21
2024-03-14T09:02:09.572Z,62.27
2024-03-14T09:04:43.022Z,62.28
2024-03-14T09:07:13.033Z,62.50
2024-03-14T09:09:43.224Z,62.23
2024-03-14T09:12:26.383Z,62.24
2024-03-14T09:14:57.446Z,62.22
2024-03-14T09:17:27.765Z,62.25
2024-03-14T09:19:57.872Z,62.42
2024-03-14T09:22:28.598Z,62.26
2024-03-14T09:24:58.838Z,62.35
2024-03-14T09:27:34.855Z,62.41
2024-03-14T09:30:10.134Z,62.39
2024-03-14T09:32:42.100Z,62.32
2024-03-14T09:35:13.491Z,62.31
2024-03-14T09:37:44.860Z,62.33
2024-03-14T09:40:17.173Z,62.48
2024-03-14T09:42:58.641Z,62.39
2024-03-14T09:45:30.842Z,62.48
2024-03-14T09:48:01.752Z,62.44
2024-03-14T09:50:34.513Z,62.38
2024-03-14T09:53:08.262Z,62.23
2024-03-14T09:55:40.622Z,62.11
2024-03-14T09:58:16.395Z,62.44
2024-03-14T10:00:46.643Z,62.35
2024-03-14T10:03:21.347Z,62.48
2024-03-14T10:05:53.681Z,62.42
2024-03-14T10:08:24.080Z,62.50
2024-03-14T10:10:54.606Z,62.50
2024-03-14T10:13:30.740Z,62.25
2024-03-14T10:16:02.229Z,62.36
2024-03-14T10:18:34.047Z,62.52
2024-03-14T10:21:07.132Z,62.44
2024-03-14T10:23:37.378Z,62.53
2024-03-14T10:26:09.437Z,62.46
2024-03-14T10:28:43.175Z,62.35
2024-03-14T10:31:13.208Z,62.33
2024-03-14T10:33:44.844Z,62.45
2024-03-14T10:36:15.401Z,62.60
2024-03-14T10:38:45.719Z,62.37
2024-03-14T10:41:19.330Z,62.38
2024-03-14T10:43:58.850Z,62.54
2024-03-14T10:46:30.824Z,62.55
2024-03-14T10:49:01.638Z,62.41
2024-03-14T10:51:32.977Z,62.38
2024-03-14T10:54:03.721Z,62.59
2024-03-14T10:56:35.656Z,62.49
2024-03-14T10:59:11.608Z,62.44
2024-03-14T11:01:49.308Z,62.58
2024-03-14T11:04:19.593Z,62.52
2024-03-14T11:06:52.067Z,62.37
2024-03-14T11:09:26.423Z,62.22
2024-03-14T11:11:59.633Z,62.46
2024-03-14T11:14:39.215Z,62.55
2024-03-14T11:17:15.747Z,62.48
2024-03-14T11:19:48.481Z,62.37
2024-03-14T11:22:22.162Z,62.74
2024-03-14T11:24:54.743Z,62.63
2024-03-14T11:27:26.024Z,62.60
2024-03-14T11:29:59.208Z,62.37
2024-03-14T11:32:35.213Z,62.69
2024-03-14T11:35:23.107Z,62.56
2024-03-14T11:37:55.000Z,62.69
2024-03-14T11:40:25.442Z,62.71
2024-03-14T11:42:55.927Z,62.48
2024-03-14T11:45:33.579Z,62.60
2024-03-14T11:48:04.174Z,62.44
2024-03-14T11:50:37.005Z,62.50
2024-03-14T11:53:09.678Z,62.55
2024-03-14T11:55:42.154Z,62.58
2024-03-14T11:58:20.658Z,62.57
2024-03-14T12:00:53.812Z,62.60
2024-03-14T12:03:25.643Z,62.59
2024-03-14T12:05:57.399Z,62.66
2024-03-14T12:08:29.623Z,62.75
2024-03-14T12:11:00.351Z,62.63
2024-03-14T12:13:31.288Z,62.60
2024-03-14T12:16:06.531Z,62.78
2024-03-14T12:18:37.285Z,62.91
2024-03-14T12:21:10.374Z,62.65
2024-03-14T12:23:41.974Z,62.83
2024-03-14T12:26:16.624Z,62.67
2024-03-14T12:28:48.336Z,62.94
2024-03-14T12:31:22.072Z,62.90
2024-03-14T12:33:53.638Z,62.87
2024-03-14T12:36:25.206Z,62.64
2024-03-14T12:38:56.981Z,62.84
2024-03-14T12:41:27.402Z,62.93
2024-03-14T12:43:58.004Z,62.99
2024-03-14T12:46:30.930Z,62.77
2024-03-14T12:49:01.287Z,62.91
2024-03-14T12:51:34.034Z,62.84
2024-03-14T12:54:05.448Z,62.91
2024-03-14T12:56:35.854Z,62.79
2024-03-14T12:59:12.047Z,63.11
2024-03-14T13:01:47.400Z,63.00
2024-03-14T13:04:20.480Z,63.11
2024-03-14T13:06:51.393Z,62.77
2024-03-14T13:09:23.635Z,63.06
2024-03-14T13:12:14.404Z,62.85
2024-03-14T13:14:45.213Z,62.95
2024-03-14T13:17:18.010Z,62.95
2024-03-14T13:19:58.774Z,62.83
2024-03-14T13:22:30.112Z,63.07
2024-03-14T13:25:01.380Z,62.92
2024-03-14T13:27:31.494Z,62.87
2024-03-14T13:30:06.951Z,62.79
2024-03-14T13:32:40.365Z,62.74
2024-03-14T13:35:12.176Z,62.75
2024-03-14T13:37:43.743Z,62.92
2024-03-14T13:42:48.897Z,62.96
2024-03-14T13:45:21.198Z,62.99
2024-03-14T13:47:56.990Z,63.01
2024-03-14T13:50:27.105Z,63.15
2024-03-14T13:52:57.233Z,63.34
2024-03-14T13:55:32.881Z,63.17
2024-03-14T13:58:03.282Z,63.06
2024-03-14T14:00:47.849Z,63.33
2024-03-14T14:03:24.007Z,63.12
2024-03-14T14:05:57.768Z,63.36
2024-03-14T14:08:29.425Z,63.07
2024-03-14T14:10:59.477Z,63.30
2024-03-14T14:13:29.773Z,63.29
2024-03-14T14:15:59.810Z,63.27
2024-03-14T14:18:32.753Z,63.43
2024-03-14T14:21:04.661Z,63.43
2024-03-14T14:23:34.788Z,63.47
2024-03-14T14:26:04.957Z,63.37
2024-03-14T14:28:35.292Z,63.15
2024-03-14T14:31:05.944Z,63.51
2024-03-14T14:33:40.212Z,63.18
2024-03-14T14:36:10.662Z,63.34
2024-03-14T14:38:40.947Z,63.19
2024-03-14T14:41:11.499Z,63.31
2024-03-14T14:43:41.699Z,63.39
2024-03-14T14:46:18.816Z,63.39
2024-03-14T14:48:54.477Z,63.54
2024-03-14T14:51:24.788Z,63.39
2024-03-14T14:53:55.130Z,63.44
2024-03-14T14:56:25.292Z,63.29
2024-03-14T14:58:55.729Z,63.46
2024-03-14T15:01:25.943Z,63.38
2024-03-14T15:03:59.511Z,63.55
2024-03-14T15:06:29.952Z,63.44
2024-03-14T15:09:00.804Z,63.51
2024-03-14T15:11:31.037Z,63.64
2024-03-14T15:14:05.321Z,63.52
2024-03-14T15:16:37.286Z,63.66
2024-03-14T15:19:10.736Z,63.67
2024-03-14T15:21:41.529Z,63.44
2024-03-14T15:24:12.960Z,63.34
2024-03-14T15:26:45.720Z,63.63
2024-03-14T15:29:17.077Z,63.61
2024-03-14T15:31:47.322Z,63.55
2024-03-14T15:34:20.102Z,63.47
2024-03-14T15:36:50.970Z,63.65
2024-03-14T15:39:21.114Z,63.55
2024-03-14T15:41:51.284Z,63.49
2024-03-14T15:44:21.740Z,63.41
2024-03-14T15:46:51.823Z,63.52
2024-03-14T15:49:24.890Z,63.46
2024-03-14T15:51:55.221Z,63.38
2024-03-14T15:54:25.690Z,63.75
2024-03-14T15:56:56.977Z,63.65
2024-03-14T15:59:28.317Z,63.50
2024-03-14T16:01:59.013Z,63.63
2024-03-14T16:04:32.422Z,63.53
2024-03-14T16:07:04.729Z,63.75
2024-03-14T16:09:35.540Z,63.58
2024-03-14T16:12:08.097Z,63.72
2024-03-14T16:14:38.182Z,63.46
2024-03-14T16:17:10.677Z,63.73
2024-03-14T16:19:44.469Z,63.71
2024-03-14T16:22:14.960Z,63.74
2024-03-14T16:24:45.256Z,63.50
2024-03-14T16:27:15.281Z,63.70
2024-03-14T16:29:45.907Z,63.72
2024-03-14T16:32:15.911Z,63.84
2024-03-14T16:34:48.813Z,63.74
2024-03-14T16:37:18.801Z,63.89
2024-03-14T16:39:49.004Z,63.60
2024-03-14T16:42:19.132Z,63.68
2024-03-14T16:44:49.206Z,63.73
2024-03-14T16:47:19.527Z,63.68
2024-03-14T16:49:53.111Z,63.70
2024-03-14T16:52:24.092Z,63.61
2024-03-14T16:54:54.368Z,63.66
2024-03-14T16:57:24.903Z,63.78
2024-03-14T16:59:57.732Z,63.87
2024-03-14T17:02:28.444Z,64.02
2024-03-14T17:05:02.635Z,64.14
2024-03-14T17:07:32.926Z,64.68
2024-03-14T17:10:04.087Z,65.20
2024-03-14T17:12:34.547Z,65.02
2024-03-14T17:15:04.891Z,64.41
2024-03-14T17:17:35.395Z,64.66
2024-03-14T17:20:12.847Z,64.38
2024-03-14T17:22:47.410Z,64.40
2024-03-14T17:25:20.703Z,64.15
2024-03-14T17:27:57.633Z,64.09
2024-03-14T17:30:35.145Z,64.50
2024-03-14T17:33:05.420Z,64.25
2024-03-14T17:35:38.355Z,64.30
2024-03-14T17:38:08.701Z,65.07
2024-03-14T17:40:39.378Z,64.74
2024-03-14T17:43:12.786Z,64.66
2024-03-14T17:45:43.172Z,64.56
2024-03-14T17:48:13.491Z,64.28
2024-03-14T17:50:46.339Z,64.09
2024-03-14T17:53:16.489Z,64.05
2024-03-14T17:55:47.018Z,63.50
2024-03-14T17:58:17.037Z,63.43
2024-03-14T18:00:49.761Z,63.07
2024-03-14T18:03:20.746Z,63.03
2024-03-14T18:05:54.417Z,62.80
2024-03-14T18:08:27.583Z,62.44
2024-03-14T18:11:01.766Z,62.25
2024-03-14T18:13:37.861Z,62.24
2024-03-14T18:16:10.822Z,62.08
2024-03-14T18:18:41.373Z,61.72
2024-03-14T18:21:15.151Z,61.82
2024-03-14T18:23:45.761Z,61.91
2024-03-14T18:26:19.857Z,61.51
2024-03-14T18:28:53.446Z,61.45
2024-03-14T18:31:24.167Z,61.83
2024-03-14T18:33:54.849Z,61.48
2024-03-14T18:36:29.465Z,61.25
2024-03-14T18:39:00.833Z,61.09
2024-03-14T18:41:31.328Z,61.57
2024-03-14T18:44:02.837Z,61.26
2024-03-14T18:46:34.772Z,61.12
2024-03-14T18:49:12.078Z,60.66
2024-03-14T18:51:51.012Z,60.71
2024-03-14T18:54:24.477Z,60.91
2024-03-14T18:57:03.617Z,60.45
2024-03-14T18:59:37.778Z,60.28
2024-03-14T19:02:11.878Z,60.33
2024-03-14T19:04:48.621Z,60.22
2024-03-14T19:07:22.125Z,59.68
2024-03-14T19:09:56.692Z,59.41
2024-03-14T19:12:32.845Z,59.25
2024-03-14T19:15:07.485Z,58.85
2024-03-14T19:17:51.496Z,58.77
2024-03-14T19:20:23.377Z,58.67
2024-03-14T19:22:59.276Z,58.55
2024-03-14T19:25:53.365Z,58.21
2024-03-14T19:28:26.795Z,58.25
2024-03-14T19:31:07.256Z,57.87
2024-03-14T19:33:48.979Z,57.49
2024-03-14T19:36:25.874Z,56.92
2024-03-14T19:38:59.774Z,56.28
2024-03-14T19:41:32.861Z,56.83
2024-03-14T19:44:04.250Z,56.28
2024-03-14T19:46:35.565Z,55.90
2024-03-14T19:49:06.696Z,55.90
2024-03-14T19:51:38.795Z,55.72
2024-03-14T19:54:13.251Z,55.97
2024-03-14T19:56:43.873Z,55.77
2024-03-14T19:59:14.847Z,55.60
2024-03-14T20:01:45.826Z,55.69
2024-03-14T20:04:17.075Z,56.21
2024-03-14T20:06:47.951Z,55.98
2024-03-14T20:09:21.729Z,56.20
2024-03-14T20:11:57.545Z,56.23
2024-03-14T20:14:28.879Z,56.00
2024-03-14T20:16:59.227Z,55.89
2024-03-14T20:19:30.441Z,55.06
2024-03-14T20:22:15.207Z,55.33
2024-03-14T20:24:52.135Z,55.70
2024-03-14T20:27:23.020Z,55.53
2024-03-14T20:29:55.423Z,55.45
2024-03-14T20:32:28.042Z,55.09
2024-03-14T20:35:01.179Z,55.07
2024-03-14T20:37:32.274Z,54.44
2024-03-14T20:40:06.120Z,54.54
2024-03-14T20:42:37.745Z,54.57
2024-03-14T20:45:09.083Z,54.49
2024-03-14T20:47:40.077Z,54.70
2024-03-14T20:50:13.398Z,54.68
2024-03-14T20:52:44.444Z,55.28
2024-03-14T20:55:22.797Z,55.09
2024-03-14T20:57:57.455Z,55.25
2024-03-14T21:00:33.144Z,55.17
2024-03-14T21:03:07.656Z,55.21
2024-03-14T21:05:42.321Z,55.11
2024-03-14T21:08:19.641Z,54.90
2024-03-14T21:10:54.702Z,55.15
2024-03-14T21:13:29.391Z,54.69
2024-03-14T21:16:01.789Z,55.03
2024-03-14T21:18:37.898Z,54.94
2024-03-14T21:21:13.139Z,54.96
2024-03-14T21:23:44.999Z,54.74
2024-03-14T21:26:20.558Z,54.57
2024-03-14T21:28:52.344Z,54.56
2024-03-14T21:31:23.908Z,53.94
2024-03-14T21:33:55.848Z,53.82
2024-03-14T21:36:28.700Z,53.70
2024-03-14T21:39:00.990Z,53.30
2024-03-14T21:41:37.322Z,53.00
2024-03-14T21:44:07.872Z,52.95
2024-03-14T21:46:44.316Z,52.89
2024-03-14T21:49:18.590Z,52.88
2024-03-14T21:51:50.390Z,53.04
2024-03-14T21:54:22.884Z,52.22
2024-03-14T21:56:56.820Z,52.19
2024-03-14T21:59:32.645Z,51.88
2024-03-14T22:02:07.001Z,51.86
2024-03-14T22:04:40.721Z,51.83
2024-03-14T22:07:11.626Z,51.70
2024-03-14T22:09:55.745Z,52.00
2024-03-14T22:12:31.876Z,51.67
2024-03-14T22:15:08.410Z,51.22
2024-03-14T22:17:40.330Z,51.26
2024-03-14T22:20:12.156Z,50.92
2024-03-14T22:22:48.210Z,51.52
2024-03-14T22:25:18.741Z,51.62
2024-03-14T22:27:52.329Z,52.04
2024-03-14T22:30:23.831Z,52.27
2024-03-14T22:32:57.190Z,52.40
2024-03-14T22:35:28.183Z,52.70
2024-03-14T22:37:58.449Z,52.75
2024-03-14T22:40:28.701Z,52.85
2024-03-14T22:43:01.617Z,52.99
2024-03-14T22:45:34.981Z,53.16
2024-03-14T22:48:05.167Z,53.37
2024-03-14T22:50:45.442Z,53.63
2024-03-14T22:53:16.079Z,53.73
2024-03-14T22:55:48.923Z,53.88
2024-03-14T22:58:22.530Z,53.90
2024-03-14T23:01:04.366Z,54.26
2024-03-14T23:03:34.973Z,54.22
2024-03-14T23:06:08.661Z,54.45
2024-03-14T23:08:39.390Z,54.71
2024-03-14T23:11:12.615Z,54.84
2024-03-14T23:13:48.619Z,54.78
2024-03-14T23:16:32.527Z,54.97
2024-03-14T23:19:04.286Z,55.27
2024-03-14T23:21:36.426Z,55.58
2024-03-14T23:24:07.183Z,55.51
2024-03-14T23:26:42.933Z,55.76
2024-03-14T23:29:16.350Z,55.71
2024-03-14T23:31:46.830Z,55.92
2024-03-14T23:34:16.904Z,56.02
2024-03-14T23:36:46.840Z,56.33
2024-03-14T23:39:19.819Z,56.35
2024-03-14T23:41:56.517Z,56.50
2024-03-14T23:44:32.102Z,56.58
2024-03-14T23:47:02.504Z,56.65
2024-03-14T23:49:39.797Z,56.74
2024-03-14T23:52:09.876Z,57.16
2024-03-14T23:54:39.985Z,57.14
2024-03-14T23:57:20.555Z,57.15
2024-03-14T23:59:53.317Z,57.43
